Time,TemperatureF,DewpointF,PressureIn,WindDirection,WindDirectionDegrees,WindSpeedMPH,WindSpeedGustMPH,Humidity,HourlyPrecipIn,Conditions,Clouds,dailyrainin,SoftwareType,DateUTC
2013-09-22 00:02:00,45.0,40.0,-100.00,SE,125,1.0,3.0,84,-99.99,,,-99.99,,2013-09-22 07:02:00,
2013-09-22 00:42:00,45.0,40.0,-100.00,SE,140,0.0,1.0,84,-99.99,,,-99.99,,2013-09-22 07:42:00,
2013-09-22 01:22:00,45.0,41.0,-100.00,ESE,120,2.0,4.0,84,-99.99,,,-99.99,,2013-09-22 08:22:00,
2013-09-22 01:42:00,45.0,41.0,-100.00,SE,145,1.0,3.0,84,-99.99,,,-99.99,,2013-09-22 08:42:00,
2013-09-22 01:52:00,45.0,41.0,-100.00,SSE,155,0.0,1.0,84,-99.99,,,-99.99,,2013-09-22 08:52:00,
2013-09-22 02:02:00,45.0,41.0,-100.00,SSE,155,0.0,1.0,84,-99.99,,,-99.99,,2013-09-22 09:02:00,
2013-09-22 02:21:00,45.0,40.0,-100.00,SE,135,0.0,2.0,84,-99.99,,,-99.99,,2013-09-22 09:21:00,
2013-09-22 02:33:00,45.0,40.0,-100.00,SE,135,0.0,2.0,84,-99.99,,,-99.99,,2013-09-22 09:33:00,
2013-09-22 03:23:00,44.0,40.0,-100.00,South,175,1.0,6.0,84,-99.99,,,-99.99,,2013-09-22 10:23:00,
2013-09-22 03:44:00,44.0,39.0,-100.00,SE,125,2.0,5.0,84,-99.99,,,-99.99,,2013-09-22 10:44:00,
2013-09-22 03:53:00,44.0,39.0,-100.00,ESE,110,2.0,4.0,84,-99.99,,,-99.99,,2013-09-22 10:53:00,
2013-09-22 04:12:00,44.0,39.0,-100.00,East,100,1.0,2.0,84,-99.99,,,-99.99,,2013-09-22 11:12:00,
2013-09-22 04:42:00,44.0,39.0,-100.00,ESE,120,4.0,6.0,84,-99.99,,,-99.99,,2013-09-22 11:42:00,
2013-09-22 04:52:00,44.0,39.0,-100.00,ESE,115,2.0,6.0,84,-99.99,,,-99.99,,2013-09-22 11:52:00,
2013-09-22 05:02:00,44.0,39.0,-100.00,ESE,115,2.0,6.0,84,-99.99,,,-99.99,,2013-09-22 12:02:00,
2013-09-22 05:22:00,44.0,39.0,-100.00,SE,125,4.0,5.0,85,-99.99,,,-99.99,,2013-09-22 12:22:00,
2013-09-22 05:42:00,44.0,39.0,-100.00,SSE,150,1.0,6.0,85,-99.99,,,-99.99,,2013-09-22 12:42:00,
2013-09-22 06:42:00,44.0,39.0,-100.00,SSE,150,2.0,6.0,85,-99.99,,,-99.99,,2013-09-22 13:42:00,
2013-09-22 07:42:00,43.0,39.0,-100.00,SE,135,2.0,6.0,85,-99.99,,,-99.99,,2013-09-22 14:42:00,
2013-09-22 07:52:00,43.0,39.0,-100.00,ESE,120,2.0,8.0,85,-99.99,,,-99.99,,2013-09-22 14:52:00,
2013-09-22 08:02:00,43.0,39.0,-100.00,ESE,120,2.0,8.0,85,-99.99,,,-99.99,,2013-09-22 15:02:00,
2013-09-22 08:44:00,44.0,39.0,-100.00,ESE,120,3.0,5.0,85,-99.99,,,-99.99,,2013-09-22 15:44:00,
2013-09-22 08:54:00,44.0,40.0,-100.00,SSE,150,1.0,6.0,85,-99.99,,,-99.99,,2013-09-22 15:54:00,
2013-09-22 09:04:00,44.0,40.0,-100.00,SSE,150,1.0,6.0,85,-99.99,,,-99.99,,2013-09-22 16:04:00,
2013-09-22 09:24:00,45.0,40.0,-100.00,SE,125,5.0,7.0,84,-99.99,,,-99.99,,2013-09-22 16:24:00,
2013-09-22 09:43:00,45.0,41.0,-100.00,SSE,160,3.0,7.0,84,-99.99,,,-99.99,,2013-09-22 16:43:00,
2013-09-22 09:54:00,46.0,41.0,-100.00,South,175,1.0,4.0,84,-99.99,,,-99.99,,2013-09-22 16:54:00,
2013-09-22 10:03:00,46.0,41.0,-100.00,South,175,1.0,4.0,84,-99.99,,,-99.99,,2013-09-22 17:03:00,
2013-09-22 10:43:00,47.0,41.0,-100.00,ESE,120,3.0,7.0,77,-99.99,,,-99.99,,2013-09-22 17:43:00,
2013-09-22 10:53:00,48.0,40.0,-100.00,South,185,1.0,6.0,74,-99.99,,,-99.99,,2013-09-22 17:53:00,
2013-09-22 11:02:00,48.0,40.0,-100.00,South,185,1.0,6.0,74,-99.99,,,-99.99,,2013-09-22 18:02:00,
2013-09-22 11:42:00,49.0,37.0,-100.00,SE,130,1.0,7.0,64,-99.99,,,-99.99,,2013-09-22 18:42:00,
2013-09-22 12:42:00,52.0,36.0,-100.00,ESE,120,2.0,10.0,53,-99.99,,,-99.99,,2013-09-22 19:42:00,
2013-09-22 12:52:00,53.0,35.0,-100.00,SSE,150,2.0,11.0,50,-99.99,,,-99.99,,2013-09-22 19:52:00,
2013-09-22 13:12:00,55.0,35.0,-100.00,SE,125,4.0,9.0,47,-99.99,,,-99.99,,2013-09-22 20:12:00,
2013-09-22 16:43:00,56.0,34.0,-100.00,SE,130,6.0,14.0,43,-99.99,,,-99.99,,2013-09-22 23:43:00,
2013-09-22 18:43:00,53.0,37.0,-100.00,ESE,120,7.0,12.0,53,-99.99,,,-99.99,,2013-09-23 01:43:00,
2013-09-22 19:42:00,52.0,39.0,-100.00,ESE,120,8.0,12.0,60,-99.99,,,-99.99,,2013-09-23 02:42:00,
2013-09-22 20:12:00,52.0,39.0,-100.00,SE,125,5.0,10.0,62,-99.99,,,-99.99,,2013-09-23 03:12:00,
2013-09-22 20:44:00,50.0,40.0,-100.00,ESE,120,6.0,12.0,68,-99.99,,,-99.99,,2013-09-23 03:44:00,
2013-09-22 20:54:00,50.0,40.0,-100.00,ESE,115,7.0,10.0,69,-99.99,,,-99.99,,2013-09-23 03:54:00,
2013-09-22 21:05:00,50.0,40.0,-100.00,ESE,115,7.0,10.0,69,-99.99,,,-99.99,,2013-09-23 04:05:00,
2013-09-22 21:43:00,50.0,41.0,-100.00,ESE,110,7.0,12.0,70,-99.99,,,-99.99,,2013-09-23 04:43:00,
2013-09-22 21:53:00,50.0,41.0,-100.00,SE,125,6.0,11.0,70,-99.99,,,-99.99,,2013-09-23 04:53:00,
2013-09-22 22:12:00,50.0,41.0,-100.00,SE,130,7.0,10.0,71,-99.99,,,-99.99,,2013-09-23 05:12:00,
2013-09-22 22:22:00,50.0,41.0,-100.00,SSE,165,4.0,10.0,71,-99.99,,,-99.99,,2013-09-23 05:22:00,
2013-09-22 22:43:00,50.0,41.0,-100.00,SE,130,6.0,10.0,72,-99.99,,,-99.99,,2013-09-23 05:43:00,
2013-09-22 22:53:00,50.0,41.0,-100.00,SE,130,7.0,11.0,71,-99.99,,,-99.99,,2013-09-23 05:53:00,
2013-09-22 23:02:00,50.0,41.0,-100.00,SE,130,7.0,11.0,71,-99.99,,,-99.99,,2013-09-23 06:02:00,
2013-09-22 23:22:00,50.0,41.0,-100.00,ESE,120,6.0,12.0,71,-99.99,,,-99.99,,2013-09-23 06:22:00,
2013-09-22 23:42:00,50.0,41.0,-100.00,SE,125,7.0,12.0,71,-99.99,,,-99.99,,2013-09-23 06:42:00,